sensor_id;sensor_type;location;lat;lon;timestamp;temperature;humidity
47520;DHT22;33252;48.122;11.538;2023-07-22T00:01:39;14.60;99.90
47520;DHT22;33252;48.122;11.538;2023-07-22T00:04:04;14.50;99.90
47520;DHT22;33252;48.122;11.538;2023-07-22T00:06:30;14.40;99.90
47520;DHT22;33252;48.122;11.538;2023-07-22T00:08:56;14.40;99.90
47520;DHT22;33252;48.122;11.538;2023-07-22T00:11:21;14.40;99.90
47520;DHT22;33252;48.122;11.538;2023-07-22T00:13:47;14.40;99.90
47520;DHT22;33252;48.122;11.538;2023-07-22T00:16:13;14.50;99.90
47520;DHT22;33252;48.122;11.538;2023-07-22T00:18:38;14.60;99.90
47520;DHT22;33252;48.122;11.538;2023-07-22T00:21:04;14.60;99.90
47520;DHT22;33252;48.122;11.538;2023-07-22T00:23:29;14.50;99.90
47520;DHT22;33252;48.122;11.538;2023-07-22T00:25:55;14.40;99.90
47520;DHT22;33252;48.122;11.538;2023-07-22T00:28:21;14.40;99.90
47520;DHT22;33252;48.122;11.538;2023-07-22T00:30:46;14.40;99.90
47520;DHT22;33252;48.122;11.538;2023-07-22T00:33:14;14.40;99.90
47520;DHT22;33252;48.122;11.538;2023-07-22T00:35:40;14.50;99.90
47520;DHT22;33252;48.122;11.538;2023-07-22T00:38:06;14.70;99.90
47520;DHT22;33252;48.122;11.538;2023-07-22T00:40:31;14.60;99.90
47520;DHT22;33252;48.122;11.538;2023-07-22T00:43:00;14.70;99.90
47520;DHT22;33252;48.122;11.538;2023-07-22T00:45:26;14.50;99.90
47520;DHT22;33252;48.122;11.538;2023-07-22T00:47:52;14.40;99.90
47520;DHT22;33252;48.122;11.538;2023-07-22T00:50:18;14.60;99.90
47520;DHT22;33252;48.122;11.538;2023-07-22T00:52:44;14.40;99.90
47520;DHT22;33252;48.122;11.538;2023-07-22T00:55:10;14.30;99.90
47520;DHT22;33252;48.122;11.538;2023-07-22T00:57:36;14.20;99.90
47520;DHT22;33252;48.122;11.538;2023-07-22T01:00:03;14.10;99.90
47520;DHT22;33252;48.122;11.538;2023-07-22T01:02:30;14.00;99.90
47520;DHT22;33252;48.122;11.538;2023-07-22T01:04:56;13.90;99.90
47520;DHT22;33252;48.122;11.538;2023-07-22T01:07:22;13.90;99.90
47520;DHT22;33252;48.122;11.538;2023-07-22T01:09:47;13.90;99.90
47520;DHT22;33252;48.122;11.538;2023-07-22T01:12:13;13.90;99.90
47520;DHT22;33252;48.122;11.538;2023-07-22T01:14:40;13.90;99.90
47520;DHT22;33252;48.122;11.538;2023-07-22T01:17:08;13.90;99.90
47520;DHT22;33252;48.122;11.538;2023-07-22T01:19:34;13.70;99.90
47520;DHT22;33252;48.122;11.538;2023-07-22T01:22:05;13.70;99.90
47520;DHT22;33252;48.122;11.538;2023-07-22T01:24:33;13.70;99.90
47520;DHT22;33252;48.122;11.538;2023-07-22T01:26:59;13.70;99.90
47520;DHT22;33252;48.122;11.538;2023-07-22T01:29:25;13.90;99.90
47520;DHT22;33252;48.122;11.538;2023-07-22T01:31:54;13.70;99.90
47520;DHT22;33252;48.122;11.538;2023-07-22T01:34:20;13.60;99.90
47520;DHT22;33252;48.122;11.538;2023-07-22T01:36:47;13.70;99.90
47520;DHT22;33252;48.122;11.538;2023-07-22T01:39:13;13.80;99.90
47520;DHT22;33252;48.122;11.538;2023-07-22T01:41:42;13.90;99.90
47520;DHT22;33252;48.122;11.538;2023-07-22T01:44:08;13.90;99.90
47520;DHT22;33252;48.122;11.538;2023-07-22T01:46:34;13.80;99.90
47520;DHT22;33252;48.122;11.538;2023-07-22T01:49:03;13.70;99.90
47520;DHT22;33252;48.122;11.538;2023-07-22T01:51:28;13.70;99.90
47520;DHT22;33252;48.122;11.538;2023-07-22T01:53:55;13.70;99.90
47520;DHT22;33252;48.122;11.538;2023-07-22T01:56:22;13.90;99.90
47520;DHT22;33252;48.122;11.538;2023-07-22T01:58:48;14.00;99.90
47520;DHT22;33252;48.122;11.538;2023-07-22T02:01:13;14.00;99.90
47520;DHT22;33252;48.122;11.538;2023-07-22T02:03:41;14.10;99.90
47520;DHT22;33252;48.122;11.538;2023-07-22T02:06:07;14.20;99.90
47520;DHT22;33252;48.122;11.538;2023-07-22T02:08:33;14.10;99.90
47520;DHT22;33252;48.122;11.538;2023-07-22T02:11:08;14.10;99.90
47520;DHT22;33252;48.122;11.538;2023-07-22T02:13:36;14.00;99.90
47520;DHT22;33252;48.122;11.538;2023-07-22T02:16:03;14.10;99.90
47520;DHT22;33252;48.122;11.538;2023-07-22T02:18:29;14.20;99.90
47520;DHT22;33252;48.122;11.538;2023-07-22T02:20:55;14.10;99.90
47520;DHT22;33252;48.122;11.538;2023-07-22T02:23:22;14.10;99.90
47520;DHT22;33252;48.122;11.538;2023-07-22T02:25:49;14.20;99.90
47520;DHT22;33252;48.122;11.538;2023-07-22T02:28:15;14.20;99.90
47520;DHT22;33252;48.122;11.538;2023-07-22T02:30:41;14.10;99.90
47520;DHT22;33252;48.122;11.538;2023-07-22T02:33:08;14.00;99.90
47520;DHT22;33252;48.122;11.538;2023-07-22T02:35:33;14.10;99.90
47520;DHT22;33252;48.122;11.538;2023-07-22T02:37:59;14.00;99.90
47520;DHT22;33252;48.122;11.538;2023-07-22T02:40:25;14.00;99.90
47520;DHT22;33252;48.122;11.538;2023-07-22T02:42:50;14.00;99.90
47520;DHT22;33252;48.122;11.538;2023-07-22T02:45:16;13.90;99.90
47520;DHT22;33252;48.122;11.538;2023-07-22T02:47:42;14.00;99.90
47520;DHT22;33252;48.122;11.538;2023-07-22T02:50:08;14.10;99.90
47520;DHT22;33252;48.122;11.538;2023-07-22T02:52:34;14.30;99.90
47520;DHT22;33252;48.122;11.538;2023-07-22T02:57:32;14.30;99.90
47520;DHT22;33252;48.122;11.538;2023-07-22T02:59:58;14.30;99.90
47520;DHT22;33252;48.122;11.538;2023-07-22T03:02:23;14.30;99.90
47520;DHT22;33252;48.122;11.538;2023-07-22T03:04:49;14.30;99.90
47520;DHT22;33252;48.122;11.538;2023-07-22T03:07:15;14.10;99.90
47520;DHT22;33252;48.122;11.538;2023-07-22T03:09:41;14.10;99.90
47520;DHT22;33252;48.122;11.538;2023-07-22T03:12:07;14.10;99.90
47520;DHT22;33252;48.122;11.538;2023-07-22T03:14:33;14.10;99.90
47520;DHT22;33252;48.122;11.538;2023-07-22T03:17:02;14.10;99.90
47520;DHT22;33252;48.122;11.538;2023-07-22T03:19:29;14.10;99.90
47520;DHT22;33252;48.122;11.538;2023-07-22T03:21:55;14.00;99.90
47520;DHT22;33252;48.122;11.538;2023-07-22T03:24:21;13.90;99.90
47520;DHT22;33252;48.122;11.538;2023-07-22T03:26:46;14.00;99.90
47520;DHT22;33252;48.122;11.538;2023-07-22T03:29:12;14.20;99.90
47520;DHT22;33252;48.122;11.538;2023-07-22T03:31:37;14.30;99.90
47520;DHT22;33252;48.122;11.538;2023-07-22T03:34:04;14.20;99.90
47520;DHT22;33252;48.122;11.538;2023-07-22T03:36:30;14.20;99.90
47520;DHT22;33252;48.122;11.538;2023-07-22T03:38:59;14.20;99.90
47520;DHT22;33252;48.122;11.538;2023-07-22T03:41:25;14.30;99.90
47520;DHT22;33252;48.122;11.538;2023-07-22T03:43:51;14.30;99.90
47520;DHT22;33252;48.122;11.538;2023-07-22T03:46:16;14.40;99.90
47520;DHT22;33252;48.122;11.538;2023-07-22T03:48:42;14.40;99.90
47520;DHT22;33252;48.122;11.538;2023-07-22T03:51:08;14.40;99.90
47520;DHT22;33252;48.122;11.538;2023-07-22T03:53:33;14.50;99.90
47520;DHT22;33252;48.122;11.538;2023-07-22T03:55:59;14.50;99.90
47520;DHT22;33252;48.122;11.538;2023-07-22T03:58:25;14.40;99.90
47520;DHT22;33252;48.122;11.538;2023-07-22T04:00:50;14.40;99.90
47520;DHT22;33252;48.122;11.538;2023-07-22T04:03:16;14.30;99.90
47520;DHT22;33252;48.122;11.538;2023-07-22T04:05:42;14.30;99.90
47520;DHT22;33252;48.122;11.538;2023-07-22T04:08:07;14.30;99.90
47520;DHT22;33252;48.122;11.538;2023-07-22T04:10:33;14.30;99.90
47520;DHT22;33252;48.122;11.538;2023-07-22T04:12:59;14.30;99.90
47520;DHT22;33252;48.122;11.538;2023-07-22T04:15:24;14.40;99.90
47520;DHT22;33252;48.122;11.538;2023-07-22T04:17:50;14.40;99.90
47520;DHT22;33252;48.122;11.538;2023-07-22T04:20:16;14.30;99.90
47520;DHT22;33252;48.122;11.538;2023-07-22T04:22:43;14.30;99.90
47520;DHT22;33252;48.122;11.538;2023-07-22T04:25:09;14.40;99.90
47520;DHT22;33252;48.122;11.538;2023-07-22T04:27:35;14.30;99.90
47520;DHT22;33252;48.122;11.538;2023-07-22T04:30:01;14.40;99.90
47520;DHT22;33252;48.122;11.538;2023-07-22T04:32:26;14.40;99.90
47520;DHT22;33252;48.122;11.538;2023-07-22T04:34:52;14.50;99.90
47520;DHT22;33252;48.122;11.538;2023-07-22T04:37:18;14.60;99.90
47520;DHT22;33252;48.122;11.538;2023-07-22T04:39:48;14.60;99.90
47520;DHT22;33252;48.122;11.538;2023-07-22T04:42:13;14.70;99.90
47520;DHT22;33252;48.122;11.538;2023-07-22T04:44:39;14.70;99.90
47520;DHT22;33252;48.122;11.538;2023-07-22T04:47:06;14.70;99.90
47520;DHT22;33252;48.122;11.538;2023-07-22T04:49:32;14.80;99.90
47520;DHT22;33252;48.122;11.538;2023-07-22T04:51:57;14.90;99.90
47520;DHT22;33252;48.122;11.538;2023-07-22T04:54:23;15.10;99.90
47520;DHT22;33252;48.122;11.538;2023-07-22T04:56:49;15.10;99.90
47520;DHT22;33252;48.122;11.538;2023-07-22T04:59:14;15.10;99.90
47520;DHT22;33252;48.122;11.538;2023-07-22T05:01:41;15.20;99.90
47520;DHT22;33252;48.122;11.538;2023-07-22T05:04:07;15.20;99.90
47520;DHT22;33252;48.122;11.538;2023-07-22T05:06:32;15.30;99.90
47520;DHT22;33252;48.122;11.538;2023-07-22T05:08:58;15.40;99.90
47520;DHT22;33252;48.122;11.538;2023-07-22T05:11:24;15.40;99.90
47520;DHT22;33252;48.122;11.538;2023-07-22T05:13:50;15.30;99.90
47520;DHT22;33252;48.122;11.538;2023-07-22T05:16:15;15.40;99.90
47520;DHT22;33252;48.122;11.538;2023-07-22T05:18:41;15.40;99.90
47520;DHT22;33252;48.122;11.538;2023-07-22T05:21:07;15.40;99.90
47520;DHT22;33252;48.122;11.538;2023-07-22T05:23:33;15.40;99.90
47520;DHT22;33252;48.122;11.538;2023-07-22T05:25:58;15.50;99.90
47520;DHT22;33252;48.122;11.538;2023-07-22T05:28:24;15.70;99.90
47520;DHT22;33252;48.122;11.538;2023-07-22T05:30:50;15.70;99.90
47520;DHT22;33252;48.122;11.538;2023-07-22T05:33:15;15.60;99.90
47520;DHT22;33252;48.122;11.538;2023-07-22T05:35:41;15.70;99.90
47520;DHT22;33252;48.122;11.538;2023-07-22T05:38:07;15.80;99.90
47520;DHT22;33252;48.122;11.538;2023-07-22T05:40:32;15.80;99.90
47520;DHT22;33252;48.122;11.538;2023-07-22T05:42:58;15.80;99.90
47520;DHT22;33252;48.122;11.538;2023-07-22T05:45:24;15.90;99.90
47520;DHT22;33252;48.122;11.538;2023-07-22T05:47:49;15.80;99.90
47520;DHT22;33252;48.122;11.538;2023-07-22T05:50:15;15.80;99.90
47520;DHT22;33252;48.122;11.538;2023-07-22T05:52:41;15.90;99.90
47520;DHT22;33252;48.122;11.538;2023-07-22T05:55:07;15.80;99.90
47520;DHT22;33252;48.122;11.538;2023-07-22T05:57:32;15.90;99.90
47520;DHT22;33252;48.122;11.538;2023-07-22T05:59:58;16.00;99.90
47520;DHT22;33252;48.122;11.538;2023-07-22T06:02:23;16.10;99.90
47520;DHT22;33252;48.122;11.538;2023-07-22T06:04:49;16.30;99.90
47520;DHT22;33252;48.122;11.538;2023-07-22T06:07:15;16.40;99.90
47520;DHT22;33252;48.122;11.538;2023-07-22T06:09:40;16.40;99.90
47520;DHT22;33252;48.122;11.538;2023-07-22T06:12:06;16.40;99.90
47520;DHT22;33252;48.122;11.538;2023-07-22T06:14:32;16.40;99.90
47520;DHT22;33252;48.122;11.538;2023-07-22T06:16:58;16.50;99.90
47520;DHT22;33252;48.122;11.538;2023-07-22T06:19:23;16.50;99.90
47520;DHT22;33252;48.122;11.538;2023-07-22T06:21:49;16.40;99.90
47520;DHT22;33252;48.122;11.538;2023-07-22T06:24:15;16.40;99.90
47520;DHT22;33252;48.122;11.538;2023-07-22T06:26:41;16.40;99.90
47520;DHT22;33252;48.122;11.538;2023-07-22T06:29:07;16.40;99.90
47520;DHT22;33252;48.122;11.538;2023-07-22T06:31:32;16.50;99.90
47520;DHT22;33252;48.122;11.538;2023-07-22T06:33:58;16.40;99.90
47520;DHT22;33252;48.122;11.538;2023-07-22T06:36:25;16.50;99.90
47520;DHT22;33252;48.122;11.538;2023-07-22T06:38:51;16.60;99.90
47520;DHT22;33252;48.122;11.538;2023-07-22T06:41:17;16.60;99.90
47520;DHT22;33252;48.122;11.538;2023-07-22T06:43:43;16.70;99.90
47520;DHT22;33252;48.122;11.538;2023-07-22T06:46:09;16.80;99.90
47520;DHT22;33252;48.122;11.538;2023-07-22T06:48:34;16.90;99.90
47520;DHT22;33252;48.122;11.538;2023-07-22T06:51:00;17.00;99.90
47520;DHT22;33252;48.122;11.538;2023-07-22T06:53:26;17.00;99.90
47520;DHT22;33252;48.122;11.538;2023-07-22T06:55:52;17.00;99.90
47520;DHT22;33252;48.122;11.538;2023-07-22T06:58:19;17.00;99.90
47520;DHT22;33252;48.122;11.538;2023-07-22T07:00:45;16.90;99.90
47520;DHT22;33252;48.122;11.538;2023-07-22T07:03:11;16.80;99.90
47520;DHT22;33252;48.122;11.538;2023-07-22T07:05:37;16.80;99.90
47520;DHT22;33252;48.122;11.538;2023-07-22T07:08:05;16.70;99.90
47520;DHT22;33252;48.122;11.538;2023-07-22T07:10:34;16.80;99.90
47520;DHT22;33252;48.122;11.538;2023-07-22T07:13:01;16.90;99.90
47520;DHT22;33252;48.122;11.538;2023-07-22T07:15:26;17.10;99.90
47520;DHT22;33252;48.122;11.538;2023-07-22T07:17:52;17.10;99.90
47520;DHT22;33252;48.122;11.538;2023-07-22T07:20:18;17.10;99.90
47520;DHT22;33252;48.122;11.538;2023-07-22T07:22:43;17.20;99.90
47520;DHT22;33252;48.122;11.538;2023-07-22T07:25:09;17.30;99.90
47520;DHT22;33252;48.122;11.538;2023-07-22T07:27:36;17.30;99.90
47520;DHT22;33252;48.122;11.538;2023-07-22T07:30:02;17.40;99.90
47520;DHT22;33252;48.122;11.538;2023-07-22T07:32:27;17.50;99.90
47520;DHT22;33252;48.122;11.538;2023-07-22T07:34:53;17.70;99.90
47520;DHT22;33252;48.122;11.538;2023-07-22T07:37:19;17.70;99.90
47520;DHT22;33252;48.122;11.538;2023-07-22T07:39:44;17.60;99.90
47520;DHT22;33252;48.122;11.538;2023-07-22T07:42:10;17.70;99.90
47520;DHT22;33252;48.122;11.538;2023-07-22T07:44:36;17.90;99.90
47520;DHT22;33252;48.122;11.538;2023-07-22T07:47:02;17.70;99.90
47520;DHT22;33252;48.122;11.538;2023-07-22T07:49:27;17.70;99.90
47520;DHT22;33252;48.122;11.538;2023-07-22T07:51:53;17.70;99.90
47520;DHT22;33252;48.122;11.538;2023-07-22T07:54:18;17.80;99.90
47520;DHT22;33252;48.122;11.538;2023-07-22T07:56:44;17.80;99.90
47520;DHT22;33252;48.122;11.538;2023-07-22T07:59:10;17.70;99.20
47520;DHT22;33252;48.122;11.538;2023-07-22T08:01:35;17.80;99.90
47520;DHT22;33252;48.122;11.538;2023-07-22T08:04:02;17.90;99.10
47520;DHT22;33252;48.122;11.538;2023-07-22T08:06:28;18.00;99.90
47520;DHT22;33252;48.122;11.538;2023-07-22T08:08:54;18.00;98.90
47520;DHT22;33252;48.122;11.538;2023-07-22T08:11:19;18.10;99.10
47520;DHT22;33252;48.122;11.538;2023-07-22T08:13:45;18.20;99.90
47520;DHT22;33252;48.122;11.538;2023-07-22T08:16:12;18.20;99.80
47520;DHT22;33252;48.122;11.538;2023-07-22T08:18:38;18.30;97.60
47520;DHT22;33252;48.122;11.538;2023-07-22T08:21:05;18.40;96.00
47520;DHT22;33252;48.122;11.538;2023-07-22T08:23:35;18.20;95.80
47520;DHT22;33252;48.122;11.538;2023-07-22T08:26:01;18.40;96.10
47520;DHT22;33252;48.122;11.538;2023-07-22T08:28:30;18.50;96.20
47520;DHT22;33252;48.122;11.538;2023-07-22T08:30:56;18.50;95.40
47520;DHT22;33252;48.122;11.538;2023-07-22T08:33:23;18.60;95.70
47520;DHT22;33252;48.122;11.538;2023-07-22T08:35:50;18.80;95.40
47520;DHT22;33252;48.122;11.538;2023-07-22T08:38:16;18.80;95.20
47520;DHT22;33252;48.122;11.538;2023-07-22T08:40:42;18.60;95.90
47520;DHT22;33252;48.122;11.538;2023-07-22T08:43:09;18.90;95.80
47520;DHT22;33252;48.122;11.538;2023-07-22T08:45:37;19.00;96.00
47520;DHT22;33252;48.122;11.538;2023-07-22T08:48:05;18.80;93.80
47520;DHT22;33252;48.122;11.538;2023-07-22T08:50:45;19.00;94.70
47520;DHT22;33252;48.122;11.538;2023-07-22T08:53:12;19.30;94.90
47520;DHT22;33252;48.122;11.538;2023-07-22T08:55:38;19.30;95.00
47520;DHT22;33252;48.122;11.538;2023-07-22T08:58:10;19.30;93.60
47520;DHT22;33252;48.122;11.538;2023-07-22T09:00:38;19.30;95.00
47520;DHT22;33252;48.122;11.538;2023-07-22T09:03:04;19.30;92.10
47520;DHT22;33252;48.122;11.538;2023-07-22T09:05:34;19.30;92.40
47520;DHT22;33252;48.122;11.538;2023-07-22T09:08:04;19.30;93.10
47520;DHT22;33252;48.122;11.538;2023-07-22T09:10:31;19.50;93.30
47520;DHT22;33252;48.122;11.538;2023-07-22T09:12:57;19.50;92.00
47520;DHT22;33252;48.122;11.538;2023-07-22T09:15:24;19.40;91.80
47520;DHT22;33252;48.122;11.538;2023-07-22T09:17:50;19.50;91.90
47520;DHT22;33252;48.122;11.538;2023-07-22T09:20:16;19.60;92.80
47520;DHT22;33252;48.122;11.538;2023-07-22T09:22:51;19.80;88.90
47520;DHT22;33252;48.122;11.538;2023-07-22T09:25:19;19.80;89.70
47520;DHT22;33252;48.122;11.538;2023-07-22T09:27:53;20.00;89.50
47520;DHT22;33252;48.122;11.538;2023-07-22T09:30:36;20.10;90.50
47520;DHT22;33252;48.122;11.538;2023-07-22T09:33:03;19.90;88.90
47520;DHT22;33252;48.122;11.538;2023-07-22T09:35:44;20.00;89.00
47520;DHT22;33252;48.122;11.538;2023-07-22T09:38:10;20.10;88.90
47520;DHT22;33252;48.122;11.538;2023-07-22T09:40:40;20.10;89.40
47520;DHT22;33252;48.122;11.538;2023-07-22T09:43:08;20.20;89.50
47520;DHT22;33252;48.122;11.538;2023-07-22T09:45:35;20.30;85.70
47520;DHT22;33252;48.122;11.538;2023-07-22T09:48:00;20.30;88.60
47520;DHT22;33252;48.122;11.538;2023-07-22T09:50:26;20.50;87.80
47520;DHT22;33252;48.122;11.538;2023-07-22T09:52:57;20.50;85.60
47520;DHT22;33252;48.122;11.538;2023-07-22T09:55:30;20.20;86.10
47520;DHT22;33252;48.122;11.538;2023-07-22T09:58:02;20.20;87.40
47520;DHT22;33252;48.122;11.538;2023-07-22T10:00:30;20.30;86.60
47520;DHT22;33252;48.122;11.538;2023-07-22T10:02:57;20.30;86.00
47520;DHT22;33252;48.122;11.538;2023-07-22T10:05:24;20.40;86.60
47520;DHT22;33252;48.122;11.538;2023-07-22T10:07:56;20.40;85.50
47520;DHT22;33252;48.122;11.538;2023-07-22T10:10:37;20.50;87.40
47520;DHT22;33252;48.122;11.538;2023-07-22T10:13:03;20.60;85.10
47520;DHT22;33252;48.122;11.538;2023-07-22T10:15:33;20.60;82.50
47520;DHT22;33252;48.122;11.538;2023-07-22T10:18:00;20.60;80.90
47520;DHT22;33252;48.122;11.538;2023-07-22T10:20:26;20.60;83.20
47520;DHT22;33252;48.122;11.538;2023-07-22T10:22:54;20.80;84.00
47520;DHT22;33252;48.122;11.538;2023-07-22T10:25:20;21.10;81.20
47520;DHT22;33252;48.122;11.538;2023-07-22T10:27:48;21.00;76.70
47520;DHT22;33252;48.122;11.538;2023-07-22T10:30:15;20.90;79.60
47520;DHT22;33252;48.122;11.538;2023-07-22T10:32:46;20.90;79.60
47520;DHT22;33252;48.122;11.538;2023-07-22T10:38:17;21.20;80.30
47520;DHT22;33252;48.122;11.538;2023-07-22T10:43:15;21.40;79.70
47520;DHT22;33252;48.122;11.538;2023-07-22T10:45:42;21.40;80.80
47520;DHT22;33252;48.122;11.538;2023-07-22T10:48:13;21.50;78.20
47520;DHT22;33252;48.122;11.538;2023-07-22T10:53:12;21.90;77.20
47520;DHT22;33252;48.122;11.538;2023-07-22T11:04:23;22.00;75.90
47520;DHT22;33252;48.122;11.538;2023-07-22T11:07:00;22.10;75.80
47520;DHT22;33252;48.122;11.538;2023-07-22T11:11:55;22.50;76.10
47520;DHT22;33252;48.122;11.538;2023-07-22T11:14:26;22.80;75.20
47520;DHT22;33252;48.122;11.538;2023-07-22T11:16:52;22.70;77.30
47520;DHT22;33252;48.122;11.538;2023-07-22T11:19:23;22.70;74.50
47520;DHT22;33252;48.122;11.538;2023-07-22T11:21:53;22.70;71.50
47520;DHT22;33252;48.122;11.538;2023-07-22T11:24:20;22.40;74.20
47520;DHT22;33252;48.122;11.538;2023-07-22T11:26:46;22.50;73.80
47520;DHT22;33252;48.122;11.538;2023-07-22T11:29:12;22.70;72.60
47520;DHT22;33252;48.122;11.538;2023-07-22T11:31:42;22.80;72.30
47520;DHT22;33252;48.122;11.538;2023-07-22T11:34:10;22.40;71.80
47520;DHT22;33252;48.122;11.538;2023-07-22T11:36:36;22.70;72.50
47520;DHT22;33252;48.122;11.538;2023-07-22T11:39:06;23.00;72.00
47520;DHT22;33252;48.122;11.538;2023-07-22T11:41:33;23.20;71.00
47520;DHT22;33252;48.122;11.538;2023-07-22T11:44:00;23.00;73.90
47520;DHT22;33252;48.122;11.538;2023-07-22T11:46:26;22.60;74.00
47520;DHT22;33252;48.122;11.538;2023-07-22T11:48:53;22.60;74.10
47520;DHT22;33252;48.122;11.538;2023-07-22T11:51:24;22.90;75.60
47520;DHT22;33252;48.122;11.538;2023-07-22T11:53:51;22.90;74.30
47520;DHT22;33252;48.122;11.538;2023-07-22T11:56:28;23.00;72.40
47520;DHT22;33252;48.122;11.538;2023-07-22T11:58:55;23.10;72.10
47520;DHT22;33252;48.122;11.538;2023-07-22T12:01:22;22.90;71.50
47520;DHT22;33252;48.122;11.538;2023-07-22T12:03:48;23.20;72.70
47520;DHT22;33252;48.122;11.538;2023-07-22T12:06:15;23.30;72.10
47520;DHT22;33252;48.122;11.538;2023-07-22T12:08:46;23.50;71.70
47520;DHT22;33252;48.122;11.538;2023-07-22T12:11:21;23.60;69.10
47520;DHT22;33252;48.122;11.538;2023-07-22T12:13:47;23.70;70.50
47520;DHT22;33252;48.122;11.538;2023-07-22T12:16:23;23.90;71.70
47520;DHT22;33252;48.122;11.538;2023-07-22T12:18:49;23.50;69.80
47520;DHT22;33252;48.122;11.538;2023-07-22T12:21:15;23.30;72.10
47520;DHT22;33252;48.122;11.538;2023-07-22T12:23:42;23.10;71.40
47520;DHT22;33252;48.122;11.538;2023-07-22T12:26:08;23.40;72.60
47520;DHT22;33252;48.122;11.538;2023-07-22T12:28:34;23.60;71.80
47520;DHT22;33252;48.122;11.538;2023-07-22T12:31:00;23.80;70.70
47520;DHT22;33252;48.122;11.538;2023-07-22T12:33:26;24.20;68.60
47520;DHT22;33252;48.122;11.538;2023-07-22T12:35:54;24.00;67.80
47520;DHT22;33252;48.122;11.538;2023-07-22T12:38:20;24.10;69.60
47520;DHT22;33252;48.122;11.538;2023-07-22T12:40:46;23.80;69.50
47520;DHT22;33252;48.122;11.538;2023-07-22T12:43:12;23.50;69.60
47520;DHT22;33252;48.122;11.538;2023-07-22T12:45:37;23.10;70.90
47520;DHT22;33252;48.122;11.538;2023-07-22T12:48:03;23.50;70.50
47520;DHT22;33252;48.122;11.538;2023-07-22T12:50:31;23.90;67.30
47520;DHT22;33252;48.122;11.538;2023-07-22T12:52:57;23.80;68.00
47520;DHT22;33252;48.122;11.538;2023-07-22T12:55:23;24.10;69.00
47520;DHT22;33252;48.122;11.538;2023-07-22T12:57:49;24.60;68.10
47520;DHT22;33252;48.122;11.538;2023-07-22T13:00:14;24.90;68.20
47520;DHT22;33252;48.122;11.538;2023-07-22T13:02:40;24.80;70.20
47520;DHT22;33252;48.122;11.538;2023-07-22T13:05:06;24.20;67.80
47520;DHT22;33252;48.122;11.538;2023-07-22T13:07:32;23.70;68.60
47520;DHT22;33252;48.122;11.538;2023-07-22T13:09:58;23.90;69.30
47520;DHT22;33252;48.122;11.538;2023-07-22T13:12:26;24.00;69.30
47520;DHT22;33252;48.122;11.538;2023-07-22T13:14:52;24.40;68.90
47520;DHT22;33252;48.122;11.538;2023-07-22T13:17:17;25.00;67.60
47520;DHT22;33252;48.122;11.538;2023-07-22T13:19:43;25.70;64.90
47520;DHT22;33252;48.122;11.538;2023-07-22T13:22:09;26.00;65.60
47520;DHT22;33252;48.122;11.538;2023-07-22T13:24:34;25.30;66.00
47520;DHT22;33252;48.122;11.538;2023-07-22T13:27:00;24.90;65.30
47520;DHT22;33252;48.122;11.538;2023-07-22T13:29:26;24.90;66.70
47520;DHT22;33252;48.122;11.538;2023-07-22T13:31:53;25.00;65.60
47520;DHT22;33252;48.122;11.538;2023-07-22T13:34:19;25.90;65.60
47520;DHT22;33252;48.122;11.538;2023-07-22T13:36:45;25.50;64.10
47520;DHT22;33252;48.122;11.538;2023-07-22T13:39:11;26.20;64.90
47520;DHT22;33252;48.122;11.538;2023-07-22T13:41:36;27.60;60.60
47520;DHT22;33252;48.122;11.538;2023-07-22T13:44:02;28.10;61.50
47520;DHT22;33252;48.122;11.538;2023-07-22T13:46:28;29.50;59.00
47520;DHT22;33252;48.122;11.538;2023-07-22T13:48:53;29.00;57.80
47520;DHT22;33252;48.122;11.538;2023-07-22T13:51:19;27.20;59.90
47520;DHT22;33252;48.122;11.538;2023-07-22T13:53:45;27.70;58.80
47520;DHT22;33252;48.122;11.538;2023-07-22T13:56:10;28.90;56.30
47520;DHT22;33252;48.122;11.538;2023-07-22T13:58:36;28.90;57.40
47520;DHT22;33252;48.122;11.538;2023-07-22T14:01:02;27.50;58.30
47520;DHT22;33252;48.122;11.538;2023-07-22T14:03:28;27.80;58.30
47520;DHT22;33252;48.122;11.538;2023-07-22T14:05:53;28.40;56.40
47520;DHT22;33252;48.122;11.538;2023-07-22T14:08:19;30.40;55.20
47520;DHT22;33252;48.122;11.538;2023-07-22T14:10:45;31.90;53.30
47520;DHT22;33252;48.122;11.538;2023-07-22T14:13:10;29.80;55.80
47520;DHT22;33252;48.122;11.538;2023-07-22T14:15:36;28.80;54.80
47520;DHT22;33252;48.122;11.538;2023-07-22T14:18:02;31.10;51.80
47520;DHT22;33252;48.122;11.538;2023-07-22T14:20:28;30.70;54.50
47520;DHT22;33252;48.122;11.538;2023-07-22T14:22:56;28.80;54.90
47520;DHT22;33252;48.122;11.538;2023-07-22T14:25:22;27.00;55.80
47520;DHT22;33252;48.122;11.538;2023-07-22T14:27:48;27.70;57.90
47520;DHT22;33252;48.122;11.538;2023-07-22T14:30:14;28.60;54.20
47520;DHT22;33252;48.122;11.538;2023-07-22T14:32:40;28.40;55.80
47520;DHT22;33252;48.122;11.538;2023-07-22T14:35:06;31.10;51.80
47520;DHT22;33252;48.122;11.538;2023-07-22T14:37:32;29.00;51.70
47520;DHT22;33252;48.122;11.538;2023-07-22T14:39:57;29.20;51.90
47520;DHT22;33252;48.122;11.538;2023-07-22T14:42:23;30.90;50.70
47520;DHT22;33252;48.122;11.538;2023-07-22T14:44:48;29.90;50.10
47520;DHT22;33252;48.122;11.538;2023-07-22T14:47:14;28.40;53.20
47520;DHT22;33252;48.122;11.538;2023-07-22T14:49:40;28.10;53.20
47520;DHT22;33252;48.122;11.538;2023-07-22T14:52:06;27.60;54.40
47520;DHT22;33252;48.122;11.538;2023-07-22T14:54:33;29.10;52.00
47520;DHT22;33252;48.122;11.538;2023-07-22T14:56:58;31.80;51.60
47520;DHT22;33252;48.122;11.538;2023-07-22T14:59:24;32.00;49.70
47520;DHT22;33252;48.122;11.538;2023-07-22T15:01:51;31.70;50.80
47520;DHT22;33252;48.122;11.538;2023-07-22T15:04:18;31.00;51.90
47520;DHT22;33252;48.122;11.538;2023-07-22T15:06:43;30.70;51.50
47520;DHT22;33252;48.122;11.538;2023-07-22T15:09:09;30.10;51.20
47520;DHT22;33252;48.122;11.538;2023-07-22T15:11:36;29.30;52.90
47520;DHT22;33252;48.122;11.538;2023-07-22T15:14:05;28.80;53.10
47520;DHT22;33252;48.122;11.538;2023-07-22T15:16:31;28.00;54.70
47520;DHT22;33252;48.122;11.538;2023-07-22T15:18:57;26.90;55.50
47520;DHT22;33252;48.122;11.538;2023-07-22T15:21:23;26.90;56.50
47520;DHT22;33252;48.122;11.538;2023-07-22T15:23:49;26.60;55.80
47520;DHT22;33252;48.122;11.538;2023-07-22T15:26:14;27.50;55.30
47520;DHT22;33252;48.122;11.538;2023-07-22T15:28:40;29.00;54.40
47520;DHT22;33252;48.122;11.538;2023-07-22T15:31:06;29.30;54.90
47520;DHT22;33252;48.122;11.538;2023-07-22T15:33:34;28.90;53.70